Time;durP1;ratioP1;P1;durP2;ratioP2;P2;SDS_P1;SDS_P2;PMS_P1;PMS_P2;Temp;Humidity;BMP_temperature;BMP_pressure;BME280_temperature;BME280_humidity;BME280_pressure;Samples;Min_cycle;Max_cycle;Signal;HPM_P1;HPM_P2
2024/02/21 00:01:36;;;;;;;2.80;0.65;;;;;;;5.38;100.00;101658.06;5070135;28;20716;-67
2024/02/21 00:04:02;;;;;;;4.35;1.05;;;;;;;5.37;100.00;101661.56;5072254;28;20043;-67
2024/02/21 00:06:27;;;;;;;1.70;0.47;;;;;;;5.36;100.00;101654.72;5078252;28;20111;-67
2024/02/21 00:08:52;;;;;;;2.80;0.65;;;;;;;5.37;100.00;101646.06;5068228;28;20028;-67
2024/02/21 00:11:18;;;;;;;0.57;0.15;;;;;;;5.66;100.00;101645.31;5071552;28;20032;-66
2024/02/21 00:13:43;;;;;;;2.13;0.30;;;;;;;5.93;100.00;101637.78;5072963;28;20066;-67
2024/02/21 00:16:10;;;;;;;1.83;0.25;;;;;;;6.04;100.00;101642.38;5068454;28;20032;-67
2024/02/21 00:18:36;;;;;;;0.95;0.20;;;;;;;6.37;98.12;101639.59;5075630;28;20043;-67
2024/02/21 00:21:01;;;;;;;0.75;0.20;;;;;;;6.85;94.02;101635.84;5075528;28;20032;-66
2024/02/21 00:23:28;;;;;;;0.82;0.15;;;;;;;7.23;91.67;101627.50;5091108;28;20043;-66
2024/02/21 00:25:54;;;;;;;0.68;0.20;;;;;;;7.33;90.81;101628.59;5080082;28;20031;-66
2024/02/21 00:28:19;;;;;;;0.73;0.22;;;;;;;7.33;91.71;101626.00;5069953;28;20024;-67
2024/02/21 00:30:47;;;;;;;0.35;0.10;;;;;;;7.02;93.24;101634.03;5078918;28;20047;-67
2024/02/21 00:33:13;;;;;;;3.38;0.20;;;;;;;6.77;95.08;101626.88;5064061;28;20036;-67
2024/02/21 00:35:39;;;;;;;1.45;0.30;;;;;;;6.61;95.43;101630.41;5070160;28;20063;-67
2024/02/21 00:38:04;;;;;;;1.00;0.30;;;;;;;6.41;96.17;101629.91;5073218;28;20058;-66
2024/02/21 00:40:30;;;;;;;1.40;0.52;;;;;;;6.26;97.07;101619.50;5068101;28;20033;-67
2024/02/21 00:42:56;;;;;;;1.08;0.40;;;;;;;6.12;97.70;101631.59;5069796;28;20163;-67
2024/02/21 00:45:21;;;;;;;1.80;0.20;;;;;;;6.01;98.90;101631.34;5069594;28;20046;-67
2024/02/21 00:47:47;;;;;;;0.98;0.30;;;;;;;5.88;99.73;101631.19;5075786;28;21707;-67
2024/02/21 00:50:12;;;;;;;2.15;0.40;;;;;;;5.85;100.00;101632.19;5071177;28;20060;-67
2024/02/21 00:52:38;;;;;;;1.40;0.45;;;;;;;5.77;100.00;101630.94;5071122;28;20029;-67
2024/02/21 00:55:04;;;;;;;1.35;0.40;;;;;;;5.62;100.00;101633.47;5069077;28;20699;-67
2024/02/21 00:57:29;;;;;;;3.10;0.50;;;;;;;5.90;99.15;101634.53;5069208;28;20043;-67
2024/02/21 00:59:55;;;;;;;2.05;0.30;;;;;;;6.05;98.16;101632.84;5064492;28;20064;-67
2024/02/21 01:02:20;;;;;;;2.40;0.60;;;;;;;5.93;98.11;101629.19;5069024;28;20055;-67
2024/02/21 01:04:46;;;;;;;2.00;0.40;;;;;;;5.75;99.33;101625.84;5075643;28;20107;-66
2024/02/21 01:07:11;;;;;;;1.50;0.40;;;;;;;5.60;100.00;101618.97;5077459;28;20035;-66
2024/02/21 01:09:37;;;;;;;0.50;0.20;;;;;;;5.70;99.92;101612.34;5071317;28;20112;-67
2024/02/21 01:12:04;;;;;;;0.63;0.15;;;;;;;6.11;97.74;101623.00;5069971;28;20081;-67
2024/02/21 01:14:29;;;;;;;0.30;0.10;;;;;;;6.66;93.50;101618.00;5065757;28;20051;-67
2024/02/21 01:16:55;;;;;;;1.27;0.20;;;;;;;6.91;91.79;101604.41;5070998;28;20032;-66
2024/02/21 01:19:20;;;;;;;0.80;0.20;;;;;;;7.12;89.08;101606.59;5073887;28;20509;-66
2024/02/21 01:21:46;;;;;;;0.57;0.20;;;;;;;7.19;89.34;101613.06;5067936;28;20373;-67
2024/02/21 01:24:11;;;;;;;0.70;0.10;;;;;;;7.19;89.85;101602.69;5087413;28;20030;-67
2024/02/21 01:26:36;;;;;;;0.90;0.15;;;;;;;7.17;89.94;101601.97;5077297;28;20025;-67
2024/02/21 01:29:02;;;;;;;0.30;0.20;;;;;;;7.12;89.72;101604.00;5068827;28;20032;-67
2024/02/21 01:31:27;;;;;;;0.68;0.10;;;;;;;7.12;90.29;101596.22;5068397;28;20032;-67
2024/02/21 01:33:53;;;;;;;4.13;0.20;;;;;;;7.09;90.81;101589.47;5067319;28;20047;-67
2024/02/21 01:36:18;;;;;;;0.40;0.10;;;;;;;7.09;91.00;101601.63;5069297;28;20047;-67
2024/02/21 01:38:44;;;;;;;1.10;0.20;;;;;;;7.07;91.05;101601.72;5070624;28;20043;-67
2024/02/21 01:41:09;;;;;;;0.73;0.20;;;;;;;7.10;89.96;101593.72;5071027;28;20771;-67
2024/02/21 01:43:35;;;;;;;1.15;0.30;;;;;;;7.09;89.54;101601.63;5071653;28;20725;-67
2024/02/21 01:46:01;;;;;;;0.50;0.20;;;;;;;7.10;90.01;101598.06;5067457;28;20109;-67
2024/02/21 01:48:27;;;;;;;0.73;0.20;;;;;;;7.03;91.01;101591.63;5072771;28;20044;-67
2024/02/21 01:50:54;;;;;;;0.73;0.30;;;;;;;6.99;90.84;101599.59;5066558;28;20041;-67
2024/02/21 01:53:24;;;;;;;1.08;0.10;;;;;;;7.01;89.74;101598.66;5067424;28;21001;-67
2024/02/21 01:55:49;;;;;;;3.17;0.30;;;;;;;7.00;90.25;101600.44;5070335;28;20032;-67
2024/02/21 01:58:16;;;;;;;0.82;0.30;;;;;;;7.01;89.63;101606.44;5067306;28;20036;-66
2024/02/21 02:00:47;;;;;;;0.77;0.25;;;;;;;6.96;90.31;101604.13;5067007;28;20040;-67
2024/02/21 02:03:17;;;;;;;1.00;0.10;;;;;;;6.95;89.89;101595.53;5067518;28;20095;-67
2024/02/21 02:05:46;;;;;;;0.35;0.10;;;;;;;6.95;89.76;101607.66;5074534;28;20383;-67
2024/02/21 02:08:14;;;;;;;0.50;0.15;;;;;;;6.92;89.31;101600.88;5070133;28;20032;-67
2024/02/21 02:10:40;;;;;;;0.82;0.20;;;;;;;6.90;90.16;101605.34;5071054;28;20165;-67
2024/02/21 02:13:05;;;;;;;1.33;0.20;;;;;;;6.89;90.27;101611.44;5069477;28;20043;-67
2024/02/21 02:15:45;;;;;;;1.02;0.20;;;;;;;6.92;91.05;101608.66;5066856;28;20048;-67
2024/02/21 02:18:11;;;;;;;1.92;0.20;;;;;;;6.96;89.03;101610.16;5075623;28;20032;-67
2024/02/21 02:20:37;;;;;;;0.43;0.10;;;;;;;6.96;89.61;101606.72;5070871;28;20078;-67
2024/02/21 02:23:25;;;;;;;1.00;0.20;;;;;;;7.02;88.87;101608.09;5071042;28;20111;-66
2024/02/21 02:25:54;;;;;;;0.60;0.13;;;;;;;7.05;88.05;101608.75;5070491;28;20113;-66
2024/02/21 02:28:21;;;;;;;0.90;0.20;;;;;;;7.07;87.99;101606.06;5066518;28;20487;-67
2024/02/21 02:30:47;;;;;;;0.70;0.28;;;;;;;7.06;87.55;101613.00;5066344;28;20059;-67
2024/02/21 02:33:12;;;;;;;0.65;0.20;;;;;;;6.98;88.18;101604.88;5069015;28;20084;-67
2024/02/21 02:35:38;;;;;;;1.33;0.20;;;;;;;6.95;88.25;101605.88;5065757;28;20029;-67
2024/02/21 02:38:04;;;;;;;2.08;0.20;;;;;;;6.90;88.61;101612.28;5066680;28;20081;-67
2024/02/21 02:40:39;;;;;;;1.63;0.30;;;;;;;6.92;88.17;101603.47;5065639;28;20028;-66
2024/02/21 02:43:04;;;;;;;0.80;0.30;;;;;;;6.97;87.45;101610.97;5071253;28;20105;-67
2024/02/21 02:45:31;;;;;;;1.27;0.22;;;;;;;7.02;87.71;101621.06;5066994;28;20044;-67
2024/02/21 02:47:57;;;;;;;0.40;0.10;;;;;;;6.98;88.00;101612.66;5071844;28;20036;-67
2024/02/21 02:50:23;;;;;;;1.65;0.25;;;;;;;6.93;88.46;101615.50;5066697;28;20096;-67
2024/02/21 02:52:49;;;;;;;0.77;0.10;;;;;;;6.85;88.43;101609.97;5060591;28;20097;-67
2024/02/21 02:55:14;;;;;;;0.70;0.20;;;;;;;6.81;88.60;101605.06;5066751;28;20031;-67
2024/02/21 02:57:41;;;;;;;2.30;0.25;;;;;;;6.80;88.84;101606.81;5068552;28;20036;-67
2024/02/21 03:00:08;;;;;;;0.65;0.20;;;;;;;6.78;88.83;101602.66;5067812;28;20091;-67
2024/02/21 03:02:34;;;;;;;0.50;0.20;;;;;;;6.71;89.63;101596.16;5064234;28;20181;-67
2024/02/21 03:04:59;;;;;;;0.60;0.20;;;;;;;6.68;88.50;101591.16;5062847;28;20496;-67
2024/02/21 03:07:25;;;;;;;0.45;0.10;;;;;;;6.68;89.48;101601.53;5069594;28;20126;-67
2024/02/21 03:09:52;;;;;;;1.05;0.20;;;;;;;6.71;88.10;101604.75;5065062;28;20040;-67
2024/02/21 03:12:24;;;;;;;0.95;0.20;;;;;;;6.67;89.89;101598.09;5069909;28;20132;-67
2024/02/21 03:14:50;;;;;;;0.60;0.20;;;;;;;6.56;90.63;101603.13;5068674;28;20054;-67
2024/02/21 03:17:16;;;;;;;1.45;0.10;;;;;;;6.50;90.12;101601.72;5073527;28;20588;-66
2024/02/21 03:19:41;;;;;;;1.08;0.15;;;;;;;6.55;89.62;101601.44;5077553;28;20515;-66
2024/02/21 03:22:07;;;;;;;2.55;0.20;;;;;;;6.49;89.17;101592.28;5080633;28;20046;-66
2024/02/21 03:24:33;;;;;;;0.47;0.10;;;;;;;6.60;88.88;101599.41;5083308;28;20123;-66
2024/02/21 03:26:58;;;;;;;1.00;0.20;;;;;;;6.56;90.27;101600.53;5075880;28;20111;-66
2024/02/21 03:29:25;;;;;;;0.75;0.20;;;;;;;6.51;90.73;101599.97;5067290;28;20035;-67
2024/02/21 03:31:50;;;;;;;2.15;0.30;;;;;;;6.55;89.86;101604.88;5068798;28;20066;-66
2024/02/21 03:34:16;;;;;;;1.45;0.60;;;;;;;6.40;90.28;101592.00;5066221;28;20118;-67
2024/02/21 03:36:41;;;;;;;1.90;0.10;;;;;;;6.33;89.52;101594.94;5065200;28;20101;-66
2024/02/21 03:39:09;;;;;;;1.20;0.10;;;;;;;6.41;88.43;101593.66;5065648;28;20510;-66
2024/02/21 03:41:34;;;;;;;0.55;0.17;;;;;;;6.44;88.38;101593.47;5067778;28;20036;-66
2024/02/21 03:44:00;;;;;;;1.02;0.20;;;;;;;6.49;88.39;101597.47;5072111;28;20687;-66
2024/02/21 03:46:25;;;;;;;0.30;0.10;;;;;;;6.45;88.37;101595.97;5069333;28;20035;-66
2024/02/21 03:48:51;;;;;;;1.17;0.10;;;;;;;6.44;88.25;101599.50;5067229;28;20065;-66
2024/02/21 03:51:17;;;;;;;2.78;0.30;;;;;;;6.45;88.57;101595.97;5063893;28;20070;-67
2024/02/21 03:53:42;;;;;;;0.15;0.00;;;;;;;6.46;88.62;101597.63;5064469;28;20040;-67
2024/02/21 03:56:08;;;;;;;0.57;0.20;;;;;;;6.45;87.46;101600.31;5065889;28;20034;-67
2024/02/21 03:58:33;;;;;;;1.00;0.10;;;;;;;6.48;87.66;101592.38;5065438;28;20029;-67
2024/02/21 04:01:03;;;;;;;0.75;0.20;;;;;;;6.39;88.17;101588.56;5065893;28;20040;-67
2024/02/21 04:03:29;;;;;;;0.68;0.20;;;;;;;6.40;88.17;101597.16;5065500;28;20666;-67
2024/02/21 04:05:54;;;;;;;0.98;0.10;;;;;;;6.31;88.92;101594.19;5065412;28;20075;-67
2024/02/21 04:08:20;;;;;;;0.93;0.28;;;;;;;6.31;87.99;101599.38;5074354;28;20028;-66
2024/02/21 04:10:45;;;;;;;0.60;0.13;;;;;;;6.31;88.33;101599.38;5067698;28;20097;-66
2024/02/21 04:13:11;;;;;;;1.00;0.15;;;;;;;6.30;88.22;101592.53;5065822;28;20048;-67
2024/02/21 04:15:36;;;;;;;1.13;0.30;;;;;;;6.30;88.01;101592.53;5068943;28;20050;-66
2024/02/21 04:18:03;;;;;;;0.45;0.20;;;;;;;6.38;87.45;101586.91;5071563;28;20123;-66
2024/02/21 04:20:29;;;;;;;2.60;0.20;;;;;;;6.27;88.48;101591.88;5069585;28;20483;-66
2024/02/21 04:22:54;;;;;;;0.77;0.13;;;;;;;6.19;88.34;101597.47;5082850;28;20458;-67
2024/02/21 04:25:20;;;;;;;0.50;0.20;;;;;;;6.17;88.92;101601.09;5064904;28;20043;-66
2024/02/21 04:27:46;;;;;;;0.93;0.20;;;;;;;6.17;88.97;101601.09;5065058;28;20567;-67
2024/02/21 04:30:11;;;;;;;1.75;0.20;;;;;;;6.16;88.72;101595.06;5078123;28;20587;-66
2024/02/21 04:32:37;;;;;;;0.52;0.28;;;;;;;6.15;88.52;101593.41;5065309;28;20036;-67
2024/02/21 04:35:03;;;;;;;4.32;0.30;;;;;;;6.07;89.11;101599.97;5067037;28;20114;-66
2024/02/21 04:37:28;;;;;;;0.65;0.20;;;;;;;6.00;89.54;101599.47;5065419;28;20036;-66
2024/02/21 04:39:54;;;;;;;3.40;0.20;;;;;;;6.02;89.79;101604.56;5063970;28;20032;-67
2024/02/21 04:42:19;;;;;;;0.70;0.20;;;;;;;5.94;90.30;101605.00;5066842;28;20513;-66
2024/02/21 04:44:45;;;;;;;0.90;0.30;;;;;;;5.91;89.97;101606.00;5070371;28;20036;-66
2024/02/21 04:47:10;;;;;;;1.17;0.22;;;;;;;5.88;90.24;101610.47;5073228;28;20429;-66
2024/02/21 04:49:36;;;;;;;0.70;0.22;;;;;;;5.85;90.01;101605.47;5070503;28;20036;-67
2024/02/21 04:52:02;;;;;;;1.65;0.45;;;;;;;5.84;90.13;101604.66;5069243;28;20027;-67
2024/02/21 04:54:27;;;;;;;0.73;0.20;;;;;;;5.85;90.33;101606.31;5068487;28;20143;-66
2024/02/21 04:56:52;;;;;;;4.00;0.30;;;;;;;5.90;89.61;101604.34;5068773;28;20044;-66
2024/02/21 04:59:18;;;;;;;0.73;0.20;;;;;;;5.86;89.59;101601.97;5072783;28;20120;-66
2024/02/21 05:01:44;;;;;;;0.52;0.20;;;;;;;5.82;89.99;101595.31;5068155;28;20089;-67
2024/02/21 05:04:09;;;;;;;0.20;0.10;;;;;;;5.87;89.48;101607.06;5068385;28;20596;-66
2024/02/21 05:06:38;;;;;;;0.88;0.20;;;;;;;5.87;89.20;101614.81;5074390;28;20663;-66
2024/02/21 05:09:04;;;;;;;0.95;0.20;;;;;;;5.81;89.31;101612.59;5068592;28;20028;-66
2024/02/21 05:11:30;;;;;;;1.17;0.10;;;;;;;5.75;89.58;101604.31;5069746;28;20032;-66
2024/02/21 05:13:56;;;;;;;2.22;0.30;;;;;;;5.71;89.89;101605.41;5066155;28;20993;-66
2024/02/21 05:16:21;;;;;;;1.20;0.20;;;;;;;5.68;90.20;101602.09;5076976;28;20880;-66
2024/02/21 05:18:47;;;;;;;1.73;0.30;;;;;;;5.77;89.49;101605.06;5075096;28;20067;-66
2024/02/21 05:21:13;;;;;;;0.50;0.20;;;;;;;5.83;89.35;101607.31;5076066;28;20020;-66
2024/02/21 05:23:39;;;;;;;1.52;0.30;;;;;;;5.80;88.84;101612.66;5089402;28;20080;-66
2024/02/21 05:26:05;;;;;;;1.50;0.28;;;;;;;5.74;90.10;101602.66;5069166;28;21051;-67
2024/02/21 05:28:31;;;;;;;0.60;0.20;;;;;;;5.78;89.39;101599.00;5068022;28;20044;-67
2024/02/21 05:30:56;;;;;;;1.00;0.45;;;;;;;5.81;89.59;101606.56;5073463;28;20826;-66
2024/02/21 05:33:22;;;;;;;1.50;0.20;;;;;;;5.70;90.77;101602.00;5069465;28;20032;-67
2024/02/21 05:35:50;;;;;;;1.80;0.30;;;;;;;5.72;88.99;101605.34;5071265;28;20066;-66
2024/02/21 05:38:16;;;;;;;0.77;0.20;;;;;;;5.74;88.56;101597.50;5069500;28;20063;-66
2024/02/21 05:40:42;;;;;;;0.70;0.20;;;;;;;5.82;87.76;101605.66;5066108;28;20414;-67
2024/02/21 05:43:08;;;;;;;0.52;0.15;;;;;;;5.92;86.84;101612.00;5068836;28;20044;-66
2024/02/21 05:45:33;;;;;;;0.73;0.20;;;;;;;5.96;86.71;101605.75;5071494;28;20032;-66
2024/02/21 05:47:59;;;;;;;1.15;0.30;;;;;;;5.88;87.17;101603.56;5073698;28;20047;-66
2024/02/21 05:50:26;;;;;;;0.82;0.20;;;;;;;5.83;87.33;101602.97;5067477;28;20114;-67
2024/02/21 05:52:52;;;;;;;1.75;0.20;;;;;;;5.81;87.48;101602.25;5067185;28;20036;-66
2024/02/21 05:55:18;;;;;;;0.68;0.30;;;;;;;5.79;87.17;101600.66;5071022;28;20032;-67
2024/02/21 05:57:43;;;;;;;0.40;0.20;;;;;;;5.75;88.17;101599.16;5066616;28;20028;-66
2024/02/21 06:00:09;;;;;;;3.20;0.20;;;;;;;5.70;87.76;101596.00;5069789;28;20482;-67
2024/02/21 06:02:34;;;;;;;1.10;0.30;;;;;;;5.72;87.98;101594.16;5072191;28;20040;-66
2024/02/21 06:05:00;;;;;;;2.15;0.20;;;;;;;5.86;86.87;101599.38;5067503;28;20027;-66
2024/02/21 06:07:26;;;;;;;0.85;0.20;;;;;;;5.85;86.90;101605.47;5075964;28;20024;-66
2024/02/21 06:09:51;;;;;;;1.10;0.20;;;;;;;5.80;88.06;101613.50;5068533;28;20028;-67
2024/02/21 06:12:16;;;;;;;2.83;0.20;;;;;;;5.73;87.85;101619.94;5066741;28;20125;-67
2024/02/21 06:14:42;;;;;;;2.85;0.43;;;;;;;5.71;87.65;101624.34;5067242;28;20147;-66
2024/02/21 06:17:08;;;;;;;1.08;0.10;;;;;;;5.71;88.66;101628.69;5074133;28;20043;-66
2024/02/21 06:19:33;;;;;;;0.80;0.20;;;;;;;5.67;88.16;101623.69;5070390;28;20032;-66
2024/02/21 06:21:58;;;;;;;0.45;0.20;;;;;;;5.70;87.75;101625.28;5069914;28;20108;-66
2024/02/21 06:24:24;;;;;;;0.80;0.20;;;;;;;5.77;87.34;101628.34;5072758;28;20509;-66
2024/02/21 06:26:49;;;;;;;0.93;0.20;;;;;;;5.78;87.54;101615.34;5067917;28;20038;-66
2024/02/21 06:29:15;;;;;;;0.85;0.20;;;;;;;5.81;87.17;101627.25;5067438;28;20095;-66
2024/02/21 06:31:40;;;;;;;1.23;0.40;;;;;;;5.82;86.64;101622.00;5067388;28;20036;-66
2024/02/21 06:34:06;;;;;;;3.10;0.20;;;;;;;5.83;86.80;101622.84;5070106;28;20040;-66
2024/02/21 06:36:31;;;;;;;1.33;0.20;;;;;;;6.02;84.71;101633.03;5082078;28;20036;-67
2024/02/21 06:38:58;;;;;;;3.55;0.20;;;;;;;6.06;84.37;101630.19;5083568;28;20028;-67
2024/02/21 06:41:23;;;;;;;1.17;0.20;;;;;;;6.05;84.64;101627.69;5083750;28;20031;-66
2024/02/21 06:43:49;;;;;;;0.82;0.20;;;;;;;6.00;84.47;101630.53;5082080;28;20028;-66
2024/02/21 06:46:28;;;;;;;1.10;0.20;;;;;;;6.02;84.61;101630.44;5084644;28;20055;-66
2024/02/21 06:48:56;;;;;;;1.73;0.20;;;;;;;6.07;83.48;101633.59;5089560;28;20039;-66
2024/02/21 06:51:22;;;;;;;4.78;0.20;;;;;;;6.23;82.19;101637.78;5085758;28;20016;-67
2024/02/21 06:53:47;;;;;;;0.57;0.10;;;;;;;6.25;82.90;101635.13;5087757;28;20399;-66
2024/02/21 06:56:13;;;;;;;1.38;0.20;;;;;;;6.30;82.90;101641.69;5087375;28;20020;-66
2024/02/21 06:58:39;;;;;;;0.73;0.20;;;;;;;6.37;82.05;101639.59;5083282;28;20057;-67
2024/02/21 07:01:04;;;;;;;0.30;0.10;;;;;;;6.42;82.31;101636.75;5086319;28;20028;-67
2024/02/21 07:03:30;;;;;;;1.15;0.22;;;;;;;6.50;82.28;101634.53;5081505;28;20040;-67
2024/02/21 07:05:55;;;;;;;1.00;0.30;;;;;;;6.58;80.83;101642.69;5082635;28;20028;-67
2024/02/21 07:08:21;;;;;;;0.40;0.20;;;;;;;6.63;80.54;101636.28;5087200;28;20012;-66
2024/02/21 07:10:47;;;;;;;1.88;0.30;;;;;;;6.62;81.55;101638.97;5087216;28;20070;-66
2024/02/21 07:13:13;;;;;;;2.10;0.35;;;;;;;6.52;82.06;101632.69;5086129;28;20086;-67
2024/02/21 07:15:38;;;;;;;1.00;0.20;;;;;;;6.47;82.39;101640.72;5084523;28;20047;-66
2024/02/21 07:18:04;;;;;;;1.25;0.20;;;;;;;6.45;82.58;101641.75;5086269;28;20035;-66
2024/02/21 07:20:29;;;;;;;1.20;0.20;;;;;;;6.42;82.51;101642.75;5085272;28;20028;-66
2024/02/21 07:22:55;;;;;;;0.77;0.20;;;;;;;6.44;82.54;101634.91;5086858;28;20032;-66
2024/02/21 07:25:20;;;;;;;0.82;0.20;;;;;;;6.51;82.23;101633.63;5078957;28;20032;-66
2024/02/21 07:27:46;;;;;;;1.48;0.30;;;;;;;6.58;82.46;101622.81;5078270;28;20067;-66
2024/02/21 07:30:12;;;;;;;0.57;0.28;;;;;;;6.62;81.65;101626.84;5081989;28;20040;-67
2024/02/21 07:32:37;;;;;;;0.60;0.20;;;;;;;6.73;81.56;101631.41;5077279;28;20036;-66
2024/02/21 07:35:03;;;;;;;0.70;0.20;;;;;;;6.82;81.43;101643.81;5073359;28;20031;-66
2024/02/21 07:37:29;;;;;;;1.45;0.20;;;;;;;6.93;80.55;101633.66;5064807;28;20610;-67
2024/02/21 07:39:54;;;;;;;0.95;0.20;;;;;;;7.05;79.49;101641.59;5071238;28;20028;-66
2024/02/21 07:42:19;;;;;;;0.60;0.10;;;;;;;7.10;79.77;101647.31;5070046;28;20059;-66
2024/02/21 07:44:45;;;;;;;2.22;0.30;;;;;;;7.14;79.86;101652.22;5074421;28;20063;-66
2024/02/21 07:47:11;;;;;;;0.90;0.30;;;;;;;7.18;79.23;101650.28;5071821;28;20073;-66
2024/02/21 07:49:48;;;;;;;0.73;0.10;;;;;;;7.16;79.30;101652.97;5071325;28;20043;-67
2024/02/21 07:52:14;;;;;;;0.40;0.13;;;;;;;7.13;79.86;101654.91;5070825;28;20406;-66
2024/02/21 07:54:40;;;;;;;0.70;0.17;;;;;;;7.09;79.74;101661.22;5068696;28;20039;-65
2024/02/21 07:57:07;;;;;;;0.95;0.20;;;;;;;7.15;79.33;101660.84;5071295;28;20032;-65
2024/02/21 07:59:32;;;;;;;1.17;0.20;;;;;;;7.24;80.73;101655.91;5073398;28;20382;-67
2024/02/21 08:01:58;;;;;;;1.10;0.20;;;;;;;7.31;79.18;101656.38;5076344;28;20034;-67
2024/02/21 08:04:24;;;;;;;1.33;0.20;;;;;;;7.40;78.79;101661.00;5074980;28;20479;-67
2024/02/21 08:06:53;;;;;;;1.13;0.30;;;;;;;7.50;78.69;101653.50;5068687;28;20506;-67
2024/02/21 08:09:19;;;;;;;2.63;0.20;;;;;;;7.60;78.95;101646.78;5067782;28;20044;-67
2024/02/21 08:11:45;;;;;;;1.05;0.30;;;;;;;7.70;77.93;101647.03;5071588;28;20540;-67
2024/02/21 08:14:10;;;;;;;2.47;0.38;;;;;;;7.84;76.28;101658.19;5067484;28;20040;-67
2024/02/21 08:16:35;;;;;;;0.45;0.10;;;;;;;7.98;77.56;101646.94;5083432;28;20032;-67
2024/02/21 08:19:03;;;;;;;0.52;0.20;;;;;;;8.13;76.54;101645.94;5091636;28;20479;-67
2024/02/21 08:21:28;;;;;;;0.43;0.15;;;;;;;8.23;76.04;101654.78;5088905;28;20086;-67
2024/02/21 08:23:55;;;;;;;1.23;0.20;;;;;;;8.25;74.84;101660.72;5087634;28;20028;-67
2024/02/21 08:26:20;;;;;;;0.70;0.10;;;;;;;8.35;74.96;101663.56;5088627;28;20024;-67
2024/02/21 08:28:45;;;;;;;1.05;0.25;;;;;;;8.37;73.97;101660.88;5086900;28;20040;-67
2024/02/21 08:31:11;;;;;;;0.90;0.30;;;;;;;8.45;75.08;101666.41;5091083;28;20040;-67
2024/02/21 08:33:36;;;;;;;0.50;0.17;;;;;;;8.54;74.59;101653.59;5088995;28;20040;-67
2024/02/21 08:36:03;;;;;;;0.85;0.20;;;;;;;8.62;75.59;101656.53;5091087;28;20046;-67
2024/02/21 08:38:28;;;;;;;2.25;0.20;;;;;;;8.59;76.70;101650.69;5088217;28;20046;-67
2024/02/21 08:40:53;;;;;;;0.93;0.20;;;;;;;8.57;76.84;101653.41;5070356;28;20029;-67
2024/02/21 08:43:19;;;;;;;0.85;0.20;;;;;;;8.58;76.09;101649.03;5087173;28;20032;-67
2024/02/21 08:45:44;;;;;;;0.65;0.30;;;;;;;8.59;74.82;101637.72;5087718;28;20033;-67
2024/02/21 08:48:10;;;;;;;0.55;0.10;;;;;;;8.64;74.34;101643.44;5089359;28;20031;-67
2024/02/21 08:50:36;;;;;;;1.00;0.15;;;;;;;8.70;75.38;101647.38;5080460;28;20037;-67
2024/02/21 08:53:01;;;;;;;0.70;0.20;;;;;;;8.82;73.21;101644.78;5085447;28;20360;-67
2024/02/21 08:55:27;;;;;;;0.80;0.20;;;;;;;8.90;73.49;101642.50;5085396;28;20039;-67
2024/02/21 08:57:52;;;;;;;0.50;0.20;;;;;;;9.01;74.30;101646.13;5084752;28;20028;-67
2024/02/21 09:00:21;;;;;;;2.30;0.20;;;;;;;9.02;72.49;101645.19;5090014;28;20027;-67
2024/02/21 09:02:46;;;;;;;2.33;0.10;;;;;;;9.05;74.21;101640.59;5084178;28;20079;-67
2024/02/21 09:05:12;;;;;;;0.70;0.20;;;;;;;9.16;72.93;101640.69;5086771;28;20063;-67
2024/02/21 09:07:37;;;;;;;2.72;0.63;;;;;;;9.15;74.53;101633.81;5082910;28;20041;-67
2024/02/21 09:10:03;;;;;;;1.88;0.22;;;;;;;9.13;73.08;101624.47;5085746;28;20031;-67
2024/02/21 09:12:29;;;;;;;1.00;0.20;;;;;;;9.22;73.44;101618.63;5082530;28;20036;-67
2024/02/21 09:14:55;;;;;;;1.58;0.20;;;;;;;9.29;72.34;101622.47;5083964;28;20048;-67
2024/02/21 09:17:24;;;;;;;0.95;0.15;;;;;;;9.37;72.09;101617.56;5080842;28;20391;-67
2024/02/21 09:19:50;;;;;;;1.80;0.20;;;;;;;9.59;70.46;101616.84;5084829;28;20403;-67
2024/02/21 09:22:15;;;;;;;1.20;0.20;;;;;;;9.63;71.25;101624.31;5084539;28;20028;-67
2024/02/21 09:24:41;;;;;;;1.45;0.30;;;;;;;9.68;72.57;101624.00;5090300;28;20047;-67
2024/02/21 09:27:07;;;;;;;1.08;0.10;;;;;;;9.73;71.56;101618.47;5084800;28;20024;-67
2024/02/21 09:29:36;;;;;;;1.05;0.20;;;;;;;9.75;70.54;101626.97;5081099;28;20133;-67
2024/02/21 09:32:02;;;;;;;2.00;0.30;;;;;;;9.73;70.71;101621.06;5086118;28;20039;-67
2024/02/21 09:34:28;;;;;;;4.25;0.38;;;;;;;9.79;70.82;101633.63;5083237;28;20036;-67
2024/02/21 09:36:54;;;;;;;3.17;0.40;;;;;;;9.84;70.97;101627.16;5085461;28;20028;-67
2024/02/21 09:39:19;;;;;;;0.80;0.30;;;;;;;9.94;72.33;101632.50;5084138;28;20028;-67
2024/02/21 09:42:01;;;;;;;2.20;0.50;;;;;;;10.01;71.03;101633.72;5084277;28;20032;-67
2024/02/21 09:44:33;;;;;;;1.25;0.20;;;;;;;10.18;71.73;101630.69;5082367;28;20085;-67
2024/02/21 09:47:03;;;;;;;1.58;0.20;;;;;;;10.37;71.48;101637.19;5082844;28;20039;-70
2024/02/21 09:49:33;;;;;;;2.85;0.40;;;;;;;10.51;69.41;101634.34;5081786;28;20135;-67
2024/02/21 09:52:03;;;;;;;2.88;0.50;;;;;;;10.54;68.82;101636.72;5082837;28;20031;-68
2024/02/21 09:54:32;;;;;;;1.02;0.22;;;;;;;10.56;67.07;101645.25;5082800;28;20024;-68
2024/02/21 09:56:58;;;;;;;1.38;0.20;;;;;;;10.84;70.29;101634.41;5082234;28;20027;-68
2024/02/21 09:59:24;;;;;;;0.35;0.10;;;;;;;10.93;69.71;101640.66;5082420;28;20028;-67
2024/02/21 10:01:51;;;;;;;0.65;0.20;;;;;;;10.93;65.64;101635.47;5084860;28;20123;-67
2024/02/21 10:04:18;;;;;;;0.95;0.20;;;;;;;11.16;64.51;101633.69;5085960;28;20028;-67
2024/02/21 10:06:44;;;;;;;8.60;0.43;;;;;;;11.28;70.50;101632.72;5083857;28;20120;-68
2024/02/21 10:09:20;;;;;;;1.08;0.40;;;;;;;11.34;64.63;101634.88;5085758;28;20111;-67
2024/02/21 10:11:45;;;;;;;6.43;0.30;;;;;;;11.43;66.62;101641.09;5084238;28;20032;-67
2024/02/21 10:14:11;;;;;;;0.55;0.17;;;;;;;11.54;61.44;101639.31;5086628;28;20055;-67
2024/02/21 10:16:37;;;;;;;0.60;0.10;;;;;;;11.58;69.97;101635.50;5082514;28;20056;-68
2024/02/21 10:19:03;;;;;;;0.30;0.13;;;;;;;11.51;68.71;101634.34;5085725;28;20031;-67
2024/02/21 10:21:29;;;;;;;0.75;0.20;;;;;;;11.63;67.57;101625.53;5083017;28;20081;-68
2024/02/21 10:23:55;;;;;;;0.68;0.20;;;;;;;11.59;63.32;101616.28;5088798;28;20020;-68
2024/02/21 10:26:21;;;;;;;1.23;0.13;;;;;;;11.49;66.26;101607.53;5082582;28;20020;-68
2024/02/21 10:28:51;;;;;;;0.60;0.20;;;;;;;11.61;66.19;101608.31;5084036;28;20017;-67
2024/02/21 10:31:27;;;;;;;1.02;0.20;;;;;;;11.64;63.84;101595.88;5084545;28;20451;-67
2024/02/21 10:33:57;;;;;;;0.50;0.20;;;;;;;11.72;62.93;101599.63;5087359;28;20107;-67
2024/02/21 10:36:24;;;;;;;0.65;0.10;;;;;;;11.90;67.09;101590.31;5083479;28;20052;-67
2024/02/21 10:38:49;;;;;;;1.85;0.20;;;;;;;11.87;67.90;101587.94;5084360;28;20036;-67
2024/02/21 10:41:17;;;;;;;0.50;0.10;;;;;;;11.92;64.72;101580.56;5084460;28;20043;-67
2024/02/21 10:43:48;;;;;;;0.88;0.10;;;;;;;12.02;64.82;101581.47;5085936;28;20040;-67
2024/02/21 10:46:18;;;;;;;0.40;0.10;;;;;;;11.83;68.65;101570.88;5085042;28;20413;-67
2024/02/21 10:48:45;;;;;;;0.40;0.10;;;;;;;11.76;69.39;101561.88;5083521;28;20395;-67
2024/02/21 10:51:19;;;;;;;1.30;0.30;;;;;;;12.03;60.62;101549.19;5085526;28;20054;-67
2024/02/21 10:53:53;;;;;;;0.80;0.20;;;;;;;12.14;65.08;101549.13;5085999;28;20054;-67
2024/02/21 10:56:26;;;;;;;0.70;0.20;;;;;;;12.17;68.58;101541.03;5084318;28;20103;-67
2024/02/21 10:58:53;;;;;;;2.42;0.20;;;;;;;12.07;71.23;101541.91;5084674;28;20024;-67
2024/02/21 11:01:19;;;;;;;1.63;0.20;;;;;;;11.97;68.00;101528.78;5084174;28;20032;-68
2024/02/21 11:03:47;;;;;;;0.60;0.28;;;;;;;12.09;69.16;101530.38;5085365;28;20032;-67
2024/02/21 11:06:13;;;;;;;0.63;0.20;;;;;;;12.09;70.10;101521.72;5089667;28;20024;-67
2024/02/21 11:08:39;;;;;;;1.05;0.20;;;;;;;12.13;65.68;101520.50;5088378;28;20436;-67
2024/02/21 11:11:05;;;;;;;2.10;0.30;;;;;;;12.43;68.41;101510.06;5089203;28;20028;-68
2024/02/21 11:13:37;;;;;;;1.90;0.20;;;;;;;12.71;64.19;101503.28;5083382;28;20048;-68
2024/02/21 11:16:21;;;;;;;0.70;0.15;;;;;;;12.74;68.57;101510.06;5083572;28;20037;-65
2024/02/21 11:18:47;;;;;;;0.68;0.15;;;;;;;12.82;67.44;101489.25;5079714;28;20050;-65
2024/02/21 11:21:13;;;;;;;0.80;0.10;;;;;;;12.90;68.32;101495.47;5082656;28;20028;-65
2024/02/21 11:23:38;;;;;;;1.23;0.20;;;;;;;12.84;69.24;101492.56;5085271;28;20038;-65
2024/02/21 11:26:05;;;;;;;0.88;0.30;;;;;;;12.88;68.57;101481.72;5085253;28;20038;-66
2024/02/21 11:28:31;;;;;;;0.77;0.20;;;;;;;12.89;69.46;101485.16;5086632;28;20046;-65